Time;durP1;ratioP1;P1;durP2;ratioP2;P2;SDS_P1;SDS_P2;PMS_P1;PMS_P2;Temp;Humidity;BMP_temperature;BMP_pressure;BME280_temperature;BME280_humidity;BME280_pressure;Samples;Min_cycle;Max_cycle;Signal;HPM_P1;HPM_P2
2021/12/26 00:02:10;;;;;;;4.78;2.17;;;;;;;;;;5070795;28;20504;-73
2021/12/26 00:04:36;;;;;;;7.97;2.55;;;;;;;;;;5074357;28;20104;-72
2021/12/26 00:07:02;;;;;;;4.40;2.45;;;;;;;;;;5070322;28;20085;-73
2021/12/26 00:09:29;;;;;;;7.00;3.08;;;;;;;;;;5066891;28;20028;-73
2021/12/26 00:11:56;;;;;;;7.80;3.05;;;;;;;;;;5069457;28;20028;-73
2021/12/26 00:14:22;;;;;;;6.07;2.22;;;;;;;;;;5064095;28;20408;-72
2021/12/26 00:16:48;;;;;;;7.68;2.70;;;;;;;;;;5063816;28;20036;-73
2021/12/26 00:19:15;;;;;;;9.35;2.92;;;;;;;;;;5062015;28;20047;-74
2021/12/26 00:21:41;;;;;;;7.78;3.03;;;;;;;;;;5073479;28;20107;-75
2021/12/26 00:24:07;;;;;;;9.38;2.72;;;;;;;;;;5071507;28;20029;-72
2021/12/26 00:26:33;;;;;;;5.55;2.63;;;;;;;;;;5077110;28;20027;-73
2021/12/26 00:29:00;;;;;;;8.70;2.53;;;;;;;;;;5065387;28;20610;-74
2021/12/26 00:31:27;;;;;;;8.52;3.50;;;;;;;;;;5069434;28;20071;-74
2021/12/26 00:33:53;;;;;;;8.23;2.97;;;;;;;;;;5070812;28;20115;-72
2021/12/26 00:36:20;;;;;;;7.32;2.72;;;;;;;;;;5069185;28;20020;-75
2021/12/26 00:38:46;;;;;;;10.80;3.60;;;;;;;;;;5070190;28;20032;-72
2021/12/26 00:41:12;;;;;;;6.60;2.80;;;;;;;;;;5062653;28;20263;-73
2021/12/26 00:43:39;;;;;;;8.10;2.70;;;;;;;;;;5066959;28;20032;-73
2021/12/26 00:46:05;;;;;;;6.47;2.72;;;;;;;;;;5066680;28;20040;-72
2021/12/26 00:48:32;;;;;;;7.43;2.97;;;;;;;;;;5063786;28;20035;-73
2021/12/26 00:50:58;;;;;;;9.23;2.80;;;;;;;;;;5066312;28;20020;-73
2021/12/26 00:53:25;;;;;;;11.32;2.70;;;;;;;;;;5067463;28;20039;-73
2021/12/26 00:55:51;;;;;;;6.45;2.95;;;;;;;;;;5063835;28;20063;-72
2021/12/26 00:58:18;;;;;;;6.93;3.15;;;;;;;;;;5064039;28;20112;-74
2021/12/26 01:00:45;;;;;;;8.75;3.03;;;;;;;;;;5066818;28;20042;-73
2021/12/26 01:03:13;;;;;;;6.90;2.15;;;;;;;;;;5074209;28;20028;-73
2021/12/26 01:05:40;;;;;;;5.40;2.40;;;;;;;;;;5071361;28;20464;-74
2021/12/26 01:08:08;;;;;;;6.97;2.53;;;;;;;;;;5069723;28;20851;-73
2021/12/26 01:10:43;;;;;;;10.30;2.90;;;;;;;;;;5073668;28;20020;-73
2021/12/26 01:13:25;;;;;;;7.10;2.47;;;;;;;;;;5069837;28;20028;-72
2021/12/26 01:15:54;;;;;;;6.65;2.42;;;;;;;;;;5068537;28;20031;-73
2021/12/26 01:18:21;;;;;;;5.22;2.30;;;;;;;;;;5063374;28;20047;-72
2021/12/26 01:23:17;;;;;;;7.93;2.53;;;;;;;;;;5065157;28;20090;-72
2021/12/26 01:25:44;;;;;;;5.80;2.50;;;;;;;;;;5067467;28;20028;-72
2021/12/26 01:28:10;;;;;;;6.28;2.40;;;;;;;;;;5063796;28;20060;-75
2021/12/26 01:30:38;;;;;;;9.77;2.20;;;;;;;;;;5064016;28;20032;-73
2021/12/26 01:33:06;;;;;;;7.00;2.25;;;;;;;;;;5061358;28;20121;-72
2021/12/26 01:35:32;;;;;;;7.05;2.80;;;;;;;;;;5076729;28;20028;-72
2021/12/26 01:37:58;;;;;;;7.22;2.35;;;;;;;;;;5068037;28;20037;-72
2021/12/26 01:40:25;;;;;;;8.82;3.08;;;;;;;;;;5065234;28;20033;-72
2021/12/26 01:42:51;;;;;;;7.60;2.90;;;;;;;;;;5070968;28;20020;-75
2021/12/26 01:45:18;;;;;;;11.50;2.60;;;;;;;;;;5070240;28;20044;-71
2021/12/26 01:47:47;;;;;;;7.40;2.65;;;;;;;;;;5072936;28;20375;-71
2021/12/26 01:50:13;;;;;;;6.40;2.72;;;;;;;;;;5067931;28;20078;-73
2021/12/26 01:52:40;;;;;;;7.70;2.80;;;;;;;;;;5068568;28;20058;-73
2021/12/26 01:55:37;;;;;;;11.32;2.95;;;;;;;;;;5066378;28;20032;-78
2021/12/26 01:58:04;;;;;;;7.68;3.85;;;;;;;;;;5069778;28;20087;-73
2021/12/26 02:00:30;;;;;;;10.07;3.88;;;;;;;;;;5075148;28;20024;-72
2021/12/26 02:02:56;;;;;;;5.10;2.45;;;;;;;;;;5077357;28;20040;-73
2021/12/26 02:05:23;;;;;;;8.55;2.63;;;;;;;;;;5071805;28;20027;-72
2021/12/26 02:07:49;;;;;;;11.20;3.13;;;;;;;;;;5071105;28;20028;-77
2021/12/26 02:10:15;;;;;;;6.18;2.55;;;;;;;;;;5073343;28;20024;-72
2021/12/26 02:12:42;;;;;;;4.65;2.55;;;;;;;;;;5072614;28;20384;-72
2021/12/26 02:15:08;;;;;;;8.93;2.90;;;;;;;;;;5067458;28;20061;-72
2021/12/26 02:17:34;;;;;;;10.32;2.70;;;;;;;;;;5068661;28;20122;-73
2021/12/26 02:21:03;;;;;;;6.70;2.50;;;;;;;;;;5069508;28;20043;-73
2021/12/26 02:23:38;;;;;;;7.13;2.15;;;;;;;;;;5060951;28;20029;-72
2021/12/26 02:28:38;;;;;;;10.35;2.70;;;;;;;;;;5069407;28;20118;-72
2021/12/26 02:31:05;;;;;;;8.60;2.85;;;;;;;;;;5071813;28;20485;-71
2021/12/26 02:33:31;;;;;;;8.95;2.70;;;;;;;;;;5076508;28;20616;-76
2021/12/26 02:35:57;;;;;;;8.40;2.92;;;;;;;;;;5072285;28;20051;-72
2021/12/26 02:38:23;;;;;;;9.43;2.35;;;;;;;;;;5070546;28;20147;-71
2021/12/26 02:40:51;;;;;;;8.68;2.60;;;;;;;;;;5067831;28;20536;-72
2021/12/26 02:43:18;;;;;;;9.15;2.55;;;;;;;;;;5070158;28;20028;-71
2021/12/26 02:45:44;;;;;;;7.50;2.45;;;;;;;;;;5070216;28;20036;-71
2021/12/26 02:48:11;;;;;;;6.40;3.13;;;;;;;;;;5071338;28;20525;-71
2021/12/26 02:50:41;;;;;;;8.98;2.50;;;;;;;;;;5079303;28;20021;-72
2021/12/26 02:53:08;;;;;;;6.93;2.53;;;;;;;;;;5068830;28;20029;-72
2021/12/26 02:55:35;;;;;;;10.18;2.63;;;;;;;;;;5069129;28;20480;-71
2021/12/26 02:58:03;;;;;;;7.40;2.53;;;;;;;;;;5069075;28;20593;-72
2021/12/26 03:00:31;;;;;;;8.23;2.33;;;;;;;;;;5070155;28;20630;-72
2021/12/26 03:02:58;;;;;;;6.38;2.22;;;;;;;;;;5069733;28;20123;-72
2021/12/26 03:05:29;;;;;;;6.88;2.60;;;;;;;;;;5078111;28;20017;-71
2021/12/26 03:07:55;;;;;;;10.88;2.17;;;;;;;;;;5071714;28;20069;-71
2021/12/26 03:10:24;;;;;;;7.93;2.10;;;;;;;;;;5073712;28;20298;-73
2021/12/26 03:12:51;;;;;;;7.57;2.22;;;;;;;;;;5072637;28;20013;-75
2021/12/26 03:15:18;;;;;;;7.05;2.55;;;;;;;;;;5071094;28;20822;-71
2021/12/26 03:17:44;;;;;;;5.53;1.83;;;;;;;;;;5070001;28;20040;-72
2021/12/26 03:20:11;;;;;;;8.52;3.00;;;;;;;;;;5073717;28;20504;-71
2021/12/26 03:22:38;;;;;;;5.97;1.90;;;;;;;;;;5066460;28;20025;-74
2021/12/26 03:25:05;;;;;;;4.63;2.10;;;;;;;;;;5067316;28;20034;-72
2021/12/26 03:27:31;;;;;;;6.72;2.20;;;;;;;;;;5072434;28;20043;-71
2021/12/26 03:29:57;;;;;;;5.45;2.13;;;;;;;;;;5071496;28;20028;-71
2021/12/26 03:32:24;;;;;;;5.30;1.85;;;;;;;;;;5069333;28;20031;-74
2021/12/26 03:34:50;;;;;;;4.97;2.42;;;;;;;;;;5067746;28;20047;-71
2021/12/26 03:37:17;;;;;;;4.43;1.65;;;;;;;;;;5067713;28;20036;-72
2021/12/26 03:39:44;;;;;;;4.75;2.00;;;;;;;;;;5071855;28;20046;-71
2021/12/26 03:42:10;;;;;;;4.93;2.03;;;;;;;;;;5073552;28;20073;-71
2021/12/26 03:44:37;;;;;;;9.88;2.10;;;;;;;;;;5071216;28;20384;-71
2021/12/26 03:47:04;;;;;;;7.28;2.20;;;;;;;;;;5064190;28;20024;-72
2021/12/26 03:49:30;;;;;;;10.50;1.90;;;;;;;;;;5071046;28;20381;-71
2021/12/26 03:51:56;;;;;;;11.02;2.30;;;;;;;;;;5066683;28;20601;-72
2021/12/26 03:54:22;;;;;;;4.57;1.60;;;;;;;;;;5072814;28;20024;-71
2021/12/26 03:56:48;;;;;;;5.00;1.90;;;;;;;;;;5070085;28;20032;-71
2021/12/26 03:59:15;;;;;;;6.72;1.80;;;;;;;;;;5068969;28;20039;-71
2021/12/26 04:01:41;;;;;;;6.43;2.15;;;;;;;;;;5071201;28;20428;-71
2021/12/26 04:04:07;;;;;;;4.40;2.05;;;;;;;;;;5070241;28;20032;-71
2021/12/26 04:06:33;;;;;;;4.78;1.90;;;;;;;;;;5068828;28;20030;-71
2021/12/26 04:08:59;;;;;;;6.30;2.10;;;;;;;;;;5071215;28;20032;-71
2021/12/26 04:11:26;;;;;;;4.53;2.38;;;;;;;;;;5066251;28;20115;-71
2021/12/26 04:13:52;;;;;;;8.38;2.35;;;;;;;;;;5065921;28;20021;-72
2021/12/26 04:16:18;;;;;;;3.15;1.35;;;;;;;;;;5067250;28;20452;-71
2021/12/26 04:18:44;;;;;;;6.63;1.90;;;;;;;;;;5068214;28;20036;-71
2021/12/26 04:21:10;;;;;;;7.53;1.73;;;;;;;;;;5071340;28;20033;-71
2021/12/26 04:23:37;;;;;;;4.07;1.58;;;;;;;;;;5067034;28;20035;-71
2021/12/26 04:26:03;;;;;;;8.07;1.63;;;;;;;;;;5068608;28;20020;-72
2021/12/26 04:28:29;;;;;;;5.38;2.05;;;;;;;;;;5067619;28;20081;-72
2021/12/26 04:30:55;;;;;;;6.55;1.70;;;;;;;;;;5068687;28;20555;-71
2021/12/26 04:33:21;;;;;;;4.63;2.10;;;;;;;;;;5065405;28;20093;-72
2021/12/26 04:35:48;;;;;;;7.95;2.13;;;;;;;;;;5069274;28;20043;-71
2021/12/26 04:38:14;;;;;;;6.03;1.50;;;;;;;;;;5065586;28;20268;-71
2021/12/26 04:40:40;;;;;;;4.28;1.63;;;;;;;;;;5065705;28;20017;-72
2021/12/26 04:43:07;;;;;;;5.80;1.92;;;;;;;;;;5067910;28;20028;-73
2021/12/26 04:45:33;;;;;;;4.85;1.58;;;;;;;;;;5065497;28;20664;-72
2021/12/26 04:48:02;;;;;;;4.65;1.70;;;;;;;;;;5073454;28;20492;-71
2021/12/26 04:50:28;;;;;;;5.03;1.85;;;;;;;;;;5061802;28;20138;-72
2021/12/26 04:52:56;;;;;;;8.35;1.73;;;;;;;;;;5062780;28;20128;-72
2021/12/26 04:55:24;;;;;;;8.52;2.05;;;;;;;;;;5068537;28;20038;-71
2021/12/26 04:57:51;;;;;;;4.65;2.00;;;;;;;;;;5066691;28;20040;-71
2021/12/26 05:00:18;;;;;;;6.35;1.90;;;;;;;;;;5064746;28;20177;-71
2021/12/26 05:02:45;;;;;;;5.53;2.25;;;;;;;;;;5065930;28;20032;-72
2021/12/26 05:05:11;;;;;;;5.18;1.70;;;;;;;;;;5063810;28;20524;-71
2021/12/26 05:07:38;;;;;;;4.75;1.92;;;;;;;;;;5065141;28;20422;-71
2021/12/26 05:10:06;;;;;;;10.60;1.92;;;;;;;;;;5068518;28;20032;-71
2021/12/26 05:12:32;;;;;;;3.67;2.15;;;;;;;;;;5060943;28;20083;-71
2021/12/26 05:14:58;;;;;;;6.82;2.25;;;;;;;;;;5064435;28;20062;-73
2021/12/26 05:17:24;;;;;;;4.75;1.90;;;;;;;;;;5061270;28;20032;-72
2021/12/26 05:19:50;;;;;;;7.55;1.85;;;;;;;;;;5065645;28;20043;-71
2021/12/26 05:22:20;;;;;;;4.22;1.70;;;;;;;;;;5065943;28;20021;-72
2021/12/26 05:24:46;;;;;;;9.07;2.10;;;;;;;;;;5061178;28;20135;-71
2021/12/26 05:27:12;;;;;;;4.78;1.90;;;;;;;;;;5061467;28;20430;-71
2021/12/26 05:29:38;;;;;;;7.20;2.15;;;;;;;;;;5063531;28;20030;-72
2021/12/26 05:32:05;;;;;;;5.50;1.90;;;;;;;;;;5062489;28;20801;-71
2021/12/26 05:34:31;;;;;;;4.13;2.00;;;;;;;;;;5068202;28;20045;-72
2021/12/26 05:36:57;;;;;;;5.03;1.90;;;;;;;;;;5061641;28;20043;-73
2021/12/26 05:39:23;;;;;;;6.90;1.75;;;;;;;;;;5064250;28;20102;-71
2021/12/26 05:41:49;;;;;;;5.07;1.48;;;;;;;;;;5061055;28;20024;-71
2021/12/26 05:44:16;;;;;;;5.22;1.90;;;;;;;;;;5064761;28;20055;-71
2021/12/26 05:46:42;;;;;;;4.10;1.50;;;;;;;;;;5074426;28;20770;-71
2021/12/26 05:49:08;;;;;;;5.47;2.00;;;;;;;;;;5068711;28;20052;-71
2021/12/26 05:51:35;;;;;;;6.03;1.80;;;;;;;;;;5066788;28;20024;-73
2021/12/26 05:54:01;;;;;;;9.20;1.65;;;;;;;;;;5064105;28;20036;-72
2021/12/26 05:56:27;;;;;;;7.65;1.83;;;;;;;;;;5064578;28;20602;-72
2021/12/26 05:58:53;;;;;;;5.60;1.65;;;;;;;;;;5064913;28;20032;-73
2021/12/26 06:01:19;;;;;;;7.80;2.22;;;;;;;;;;5063371;28;20472;-74
2021/12/26 06:03:45;;;;;;;6.57;2.00;;;;;;;;;;5063579;28;20086;-74
2021/12/26 06:06:11;;;;;;;4.18;1.45;;;;;;;;;;5064544;28;20021;-73
2021/12/26 06:08:38;;;;;;;4.85;1.48;;;;;;;;;;5060074;28;20028;-73
2021/12/26 06:11:04;;;;;;;6.65;1.73;;;;;;;;;;5059798;28;20037;-73
2021/12/26 06:13:31;;;;;;;9.55;2.20;;;;;;;;;;5065001;28;20040;-73
2021/12/26 06:15:58;;;;;;;8.38;1.65;;;;;;;;;;5065334;28;20033;-72
2021/12/26 06:18:24;;;;;;;4.53;1.90;;;;;;;;;;5060556;28;20037;-72
2021/12/26 06:20:50;;;;;;;6.00;1.88;;;;;;;;;;5063415;28;20027;-72
2021/12/26 06:23:16;;;;;;;4.40;1.60;;;;;;;;;;5069034;28;20035;-72
2021/12/26 06:25:43;;;;;;;4.80;1.52;;;;;;;;;;5065542;28;20032;-72
2021/12/26 06:28:09;;;;;;;6.68;1.73;;;;;;;;;;5065039;28;20059;-73
2021/12/26 06:30:35;;;;;;;4.35;1.80;;;;;;;;;;5065588;28;20361;-73
2021/12/26 06:33:02;;;;;;;7.38;2.10;;;;;;;;;;5066537;28;20035;-75
2021/12/26 06:35:28;;;;;;;4.25;1.80;;;;;;;;;;5070503;28;20028;-72
2021/12/26 06:37:54;;;;;;;4.47;2.10;;;;;;;;;;5070494;28;20033;-74
2021/12/26 06:40:20;;;;;;;7.43;2.67;;;;;;;;;;5068087;28;20032;-72
2021/12/26 06:42:49;;;;;;;4.10;1.90;;;;;;;;;;5071701;28;20130;-71
2021/12/26 06:45:17;;;;;;;3.65;1.45;;;;;;;;;;5069890;28;20135;-72
2021/12/26 06:47:48;;;;;;;3.25;1.80;;;;;;;;;;5066999;28;20051;-71
2021/12/26 06:50:15;;;;;;;5.15;1.77;;;;;;;;;;5063691;28;20059;-72
2021/12/26 06:52:42;;;;;;;4.65;2.05;;;;;;;;;;5065614;28;20056;-71
2021/12/26 06:55:09;;;;;;;4.68;1.70;;;;;;;;;;5064441;28;20031;-71
2021/12/26 06:57:35;;;;;;;6.30;2.17;;;;;;;;;;5066101;28;20531;-72
2021/12/26 07:00:03;;;;;;;2.50;1.60;;;;;;;;;;5066676;28;20111;-72
2021/12/26 07:02:29;;;;;;;2.70;1.70;;;;;;;;;;5075542;28;20365;-71
2021/12/26 07:04:55;;;;;;;2.35;1.70;;;;;;;;;;5063725;28;20153;-71
2021/12/26 07:07:21;;;;;;;4.95;1.90;;;;;;;;;;5066103;28;20024;-72
2021/12/26 07:09:48;;;;;;;5.30;1.80;;;;;;;;;;5065793;28;20032;-72
2021/12/26 07:12:14;;;;;;;4.38;2.17;;;;;;;;;;5066347;28;20503;-73
2021/12/26 07:14:41;;;;;;;4.43;2.08;;;;;;;;;;5063274;28;20023;-71
2021/12/26 07:17:07;;;;;;;5.25;2.08;;;;;;;;;;5070904;28;20020;-72
2021/12/26 07:19:33;;;;;;;7.53;1.67;;;;;;;;;;5066961;28;20070;-71
2021/12/26 07:22:00;;;;;;;4.85;2.33;;;;;;;;;;5067963;28;20850;-72
2021/12/26 07:24:26;;;;;;;4.80;2.28;;;;;;;;;;5063558;28;20539;-72
2021/12/26 07:26:52;;;;;;;4.20;2.33;;;;;;;;;;5062023;28;20033;-72
2021/12/26 07:29:18;;;;;;;3.58;2.10;;;;;;;;;;5063530;28;20036;-71
2021/12/26 07:31:44;;;;;;;4.20;2.40;;;;;;;;;;5062051;28;20032;-72
2021/12/26 07:34:11;;;;;;;4.55;2.22;;;;;;;;;;5063345;28;20040;-72
2021/12/26 07:36:37;;;;;;;6.60;2.50;;;;;;;;;;5060502;28;20115;-73
2021/12/26 07:39:04;;;;;;;5.40;2.40;;;;;;;;;;5064326;28;20137;-71
2021/12/26 07:41:30;;;;;;;6.13;2.55;;;;;;;;;;5069404;28;20028;-71
2021/12/26 07:43:56;;;;;;;5.60;2.63;;;;;;;;;;5059459;28;20025;-72
2021/12/26 07:46:23;;;;;;;5.28;2.78;;;;;;;;;;5068426;28;20066;-71
2021/12/26 07:48:49;;;;;;;4.72;2.47;;;;;;;;;;5069183;28;20913;-73
2021/12/26 07:51:15;;;;;;;4.45;2.05;;;;;;;;;;5074157;28;20020;-72
2021/12/26 07:53:41;;;;;;;7.35;2.05;;;;;;;;;;5068193;28;20081;-72
2021/12/26 07:56:08;;;;;;;10.60;1.90;;;;;;;;;;5062954;28;20036;-71
2021/12/26 07:58:34;;;;;;;4.47;2.45;;;;;;;;;;5064960;28;20589;-72
2021/12/26 08:01:00;;;;;;;3.67;1.88;;;;;;;;;;5061460;28;20029;-72
2021/12/26 08:03:27;;;;;;;10.10;1.85;;;;;;;;;;5063542;28;20032;-71
2021/12/26 08:05:53;;;;;;;5.32;2.13;;;;;;;;;;5063578;28;20107;-72
2021/12/26 08:08:19;;;;;;;7.00;2.17;;;;;;;;;;5067014;28;20028;-73
2021/12/26 08:10:45;;;;;;;7.90;2.33;;;;;;;;;;5066718;28;20439;-71
2021/12/26 08:13:11;;;;;;;5.75;2.15;;;;;;;;;;5064818;28;20025;-71
2021/12/26 08:15:38;;;;;;;3.85;2.20;;;;;;;;;;5071896;28;20035;-72
2021/12/26 08:18:04;;;;;;;8.38;2.40;;;;;;;;;;5067511;28;20024;-72
2021/12/26 08:20:30;;;;;;;5.93;2.35;;;;;;;;;;5064898;28;20029;-72
2021/12/26 08:22:57;;;;;;;4.75;1.98;;;;;;;;;;5065750;28;20020;-72
2021/12/26 08:25:24;;;;;;;4.43;1.85;;;;;;;;;;5072446;28;20099;-72
2021/12/26 08:27:50;;;;;;;7.63;2.22;;;;;;;;;;5066887;28;20030;-72
2021/12/26 08:30:16;;;;;;;3.85;1.95;;;;;;;;;;5071305;28;20028;-72
2021/12/26 08:32:43;;;;;;;7.75;2.58;;;;;;;;;;5064542;28;20066;-72
2021/12/26 08:35:09;;;;;;;4.47;2.67;;;;;;;;;;5066252;28;20481;-73
2021/12/26 08:37:37;;;;;;;7.45;3.20;;;;;;;;;;5067881;28;20035;-72
2021/12/26 08:40:04;;;;;;;4.97;2.75;;;;;;;;;;5065694;28;20024;-73
2021/12/26 08:42:30;;;;;;;6.95;3.20;;;;;;;;;;5070460;28;20138;-73
2021/12/26 08:44:58;;;;;;;6.85;2.90;;;;;;;;;;5069199;28;20189;-72
2021/12/26 08:47:24;;;;;;;7.88;2.83;;;;;;;;;;5069029;28;20064;-72
2021/12/26 08:49:50;;;;;;;5.78;3.05;;;;;;;;;;5066417;28;20037;-72
2021/12/26 08:52:16;;;;;;;9.50;2.88;;;;;;;;;;5067112;28;20032;-72
2021/12/26 08:54:43;;;;;;;8.73;2.42;;;;;;;;;;5071886;28;20063;-72
2021/12/26 08:57:10;;;;;;;6.65;3.00;;;;;;;;;;5068078;28;20036;-73
2021/12/26 08:59:37;;;;;;;9.10;2.80;;;;;;;;;;5075965;28;20097;-73
2021/12/26 09:02:06;;;;;;;7.93;3.30;;;;;;;;;;5069797;28;20032;-72
2021/12/26 09:04:32;;;;;;;5.72;2.92;;;;;;;;;;5067616;28;20525;-73
2021/12/26 09:06:59;;;;;;;4.53;2.17;;;;;;;;;;5065224;28;20021;-73
2021/12/26 09:09:27;;;;;;;5.97;2.80;;;;;;;;;;5064366;28;20028;-72
2021/12/26 09:11:53;;;;;;;9.07;2.92;;;;;;;;;;5063474;28;20226;-72
2021/12/26 09:14:19;;;;;;;5.68;2.90;;;;;;;;;;5065534;28;20021;-75
2021/12/26 09:16:46;;;;;;;5.90;2.60;;;;;;;;;;5068510;28;20012;-73
2021/12/26 09:19:12;;;;;;;5.47;2.60;;;;;;;;;;5066367;28;20515;-73
2021/12/26 09:21:38;;;;;;;8.13;3.05;;;;;;;;;;5070073;28;20070;-73
2021/12/26 09:24:05;;;;;;;5.38;3.10;;;;;;;;;;5071609;28;20111;-72
2021/12/26 09:26:31;;;;;;;7.70;3.42;;;;;;;;;;5066597;28;20020;-73
2021/12/26 09:28:57;;;;;;;6.20;2.67;;;;;;;;;;5068795;28;20074;-72
2021/12/26 09:31:24;;;;;;;9.10;3.53;;;;;;;;;;5071378;28;20032;-71
2021/12/26 09:33:50;;;;;;;7.25;3.92;;;;;;;;;;5072369;28;20095;-73
2021/12/26 09:36:16;;;;;;;6.97;2.72;;;;;;;;;;5069613;28;20107;-73
2021/12/26 09:38:43;;;;;;;5.88;3.00;;;;;;;;;;5061405;28;20246;-75
2021/12/26 09:41:09;;;;;;;10.50;3.30;;;;;;;;;;5064042;28;20834;-75
2021/12/26 09:43:36;;;;;;;5.63;2.60;;;;;;;;;;5066708;28;20055;-75
2021/12/26 09:46:02;;;;;;;10.13;3.17;;;;;;;;;;5070556;28;20040;-74
2021/12/26 09:48:28;;;;;;;7.50;3.33;;;;;;;;;;5067898;28;20110;-75
2021/12/26 09:50:54;;;;;;;4.38;2.90;;;;;;;;;;5066188;28;20028;-75
2021/12/26 09:53:21;;;;;;;6.18;2.80;;;;;;;;;;5064782;28;20223;-74
2021/12/26 09:55:47;;;;;;;6.35;2.75;;;;;;;;;;5065880;28;20410;-73
2021/12/26 09:58:14;;;;;;;5.43;2.10;;;;;;;;;;5067667;28;20055;-72
2021/12/26 10:00:42;;;;;;;6.63;2.75;;;;;;;;;;5070042;28;20024;-74
2021/12/26 10:03:33;;;;;;;3.80;2.17;;;;;;;;;;5073302;28;20159;-73
2021/12/26 10:06:06;;;;;;;10.98;2.70;;;;;;;;;;5069296;28;20103;-72
2021/12/26 10:08:34;;;;;;;6.57;2.80;;;;;;;;;;5073290;28;20032;-73
2021/12/26 10:11:26;;;;;;;11.93;3.65;;;;;;;;;;5071235;28;20104;-74
2021/12/26 10:14:04;;;;;;;4.88;2.40;;;;;;;;;;5075394;28;20264;-73
2021/12/26 10:16:31;;;;;;;9.23;2.92;;;;;;;;;;5072178;28;20496;-73
2021/12/26 10:18:58;;;;;;;6.78;2.78;;;;;;;;;;5072159;28;20039;-76
2021/12/26 10:21:43;;;;;;;6.28;2.65;;;;;;;;;;5072808;28;20469;-73
2021/12/26 10:24:17;;;;;;;7.85;2.92;;;;;;;;;;5071040;28;20052;-73
2021/12/26 10:26:53;;;;;;;12.32;3.28;;;;;;;;;;5064393;28;20035;-72
2021/12/26 10:29:26;;;;;;;9.95;3.88;;;;;;;;;;5067805;28;20016;-75
2021/12/26 10:32:12;;;;;;;8.68;3.63;;;;;;;;;;5066309;28;20423;-73
2021/12/26 10:34:38;;;;;;;7.00;3.33;;;;;;;;;;5075025;28;20032;-72
2021/12/26 10:37:09;;;;;;;11.30;4.13;;;;;;;;;;5072757;28;20028;-73
2021/12/26 10:39:40;;;;;;;17.65;4.07;;;;;;;;;;5063952;28;20097;-74
2021/12/26 10:42:13;;;;;;;8.75;3.47;;;;;;;;;;5063550;28;20533;-74
2021/12/26 10:44:43;;;;;;;9.30;3.70;;;;;;;;;;5069362;28;20055;-73
2021/12/26 10:47:11;;;;;;;11.48;4.00;;;;;;;;;;5065280;28;20402;-74
2021/12/26 10:49:40;;;;;;;7.90;3.47;;;;;;;;;;5069866;28;20094;-76
2021/12/26 10:52:11;;;;;;;11.05;4.40;;;;;;;;;;5068635;28;20028;-72
2021/12/26 10:54:41;;;;;;;7.55;4.07;;;;;;;;;;5065093;28;20021;-74
2021/12/26 10:57:13;;;;;;;7.97;4.47;;;;;;;;;;5069529;28;20474;-73
2021/12/26 10:59:40;;;;;;;7.93;3.42;;;;;;;;;;5067363;28;20025;-72
2021/12/26 11:02:07;;;;;;;6.00;3.10;;;;;;;;;;5060709;28;20064;-72
2021/12/26 11:04:34;;;;;;;5.05;3.38;;;;;;;;;;5063176;28;20040;-73
2021/12/26 11:07:02;;;;;;;11.20;3.60;;;;;;;;;;5064456;28;20028;-74
2021/12/26 11:09:28;;;;;;;7.53;4.20;;;;;;;;;;5061589;28;20028;-72
2021/12/26 11:11:59;;;;;;;5.45;3.20;;;;;;;;;;5065177;28;20028;-73
2021/12/26 11:14:25;;;;;;;9.80;3.85;;;;;;;;;;5064389;28;20033;-73
2021/12/26 11:16:51;;;;;;;8.88;4.50;;;;;;;;;;5067393;28;20028;-73
2021/12/26 11:19:17;;;;;;;12.23;6.35;;;;;;;;;;5068085;28;20522;-75
2021/12/26 11:21:43;;;;;;;10.75;5.30;;;;;;;;;;5067603;28;20222;-75
2021/12/26 11:24:09;;;;;;;14.27;6.22;;;;;;;;;;5069329;28;20043;-72
2021/12/26 11:26:36;;;;;;;12.23;6.60;;;;;;;;;;5064595;28;20029;-73
2021/12/26 11:29:02;;;;;;;13.55;7.38;;;;;;;;;;5066720;28;20032;-73
2021/12/26 11:31:30;;;;;;;12.45;7.45;;;;;;;;;;5068325;28;20060;-76
2021/12/26 11:34:00;;;;;;;16.67;10.70;;;;;;;;;;5071916;28;20115;-70
2021/12/26 11:36:29;;;;;;;16.85;12.05;;;;;;;;;;5074358;28;20028;-75
2021/12/26 11:38:57;;;;;;;16.00;10.07;;;;;;;;;;5071570;28;20043;-69
2021/12/26 11:41:31;;;;;;;17.02;8.95;;;;;;;;;;5064177;28;20048;-72
2021/12/26 11:44:03;;;;;;;15.95;8.25;;;;;;;;;;5075947;28;20035;-70
2021/12/26 11:46:29;;;;;;;;;;;;;;;;;;5069400;28;20689;-70
2021/12/26 11:49:12;;;;;;;15.15;7.80;;;;;;;;;;5061677;28;19959;-70
2021/12/26 11:51:51;;;;;;;10.02;6.45;;;;;;;;;;5064055;28;20028;-71
2021/12/26 11:54:33;;;;;;;8.75;3.83;;;;;;;;;;5075084;28;20176;-70
2021/12/26 11:56:59;;;;;;;8.75;3.85;;;;;;;;;;5067359;28;20025;-70
2021/12/26 11:59:25;;;;;;;9.27;4.20;;;;;;;;;;5066151;28;20070;-70
2021/12/26 12:01:52;;;;;;;4.35;3.13;;;;;;;;;;5064006;28;20621;-69
2021/12/26 12:04:20;;;;;;;7.15;3.17;;;;;;;;;;5062012;28;20032;-70
2021/12/26 12:06:47;;;;;;;10.35;4.88;;;;;;;;;;5063570;28;20016;-69
2021/12/26 12:09:33;;;;;;;13.75;6.60;;;;;;;;;;5064483;28;20525;-69
2021/12/26 12:12:01;;;;;;;14.63;7.70;;;;;;;;;;5068402;28;20054;-70
2021/12/26 12:14:46;;;;;;;20.98;9.20;;;;;;;;;;5062570;28;20032;-69
2021/12/26 12:17:20;;;;;;;16.83;10.80;;;;;;;;;;5067037;28;20040;-70
2021/12/26 12:20:04;;;;;;;22.35;13.60;;;;;;;;;;5067440;28;20071;-69
2021/12/26 12:22:31;;;;;;;22.58;13.05;;;;;;;;;;5062264;28;20540;-70
2021/12/26 12:24:57;;;;;;;22.15;13.90;;;;;;;;;;5061103;28;20115;-71
2021/12/26 12:27:24;;;;;;;20.45;12.65;;;;;;;;;;5061483;28;20459;-70
2021/12/26 12:29:53;;;;;;;18.80;10.85;;;;;;;;;;5073377;28;20461;-70
2021/12/26 12:32:26;;;;;;;17.02;10.02;;;;;;;;;;5064603;28;20021;-70
2021/12/26 12:35:04;;;;;;;16.30;9.70;;;;;;;;;;5069097;28;21158;-69
2021/12/26 12:37:33;;;;;;;25.63;12.82;;;;;;;;;;5061174;28;20139;-69
2021/12/26 12:40:09;;;;;;;26.40;14.48;;;;;;;;;;5065050;28;20644;-70
2021/12/26 12:42:36;;;;;;;29.67;17.13;;;;;;;;;;5060519;28;20029;-70
2021/12/26 12:45:02;;;;;;;37.55;19.15;;;;;;;;;;5064512;28;20056;-69
2021/12/26 12:47:28;;;;;;;28.80;16.98;;;;;;;;;;5063101;28;20020;-69
2021/12/26 12:49:57;;;;;;;23.30;13.77;;;;;;;;;;5067660;28;20051;-70
2021/12/26 12:52:41;;;;;;;25.23;14.10;;;;;;;;;;5061960;28;20036;-70
2021/12/26 12:55:10;;;;;;;18.83;10.30;;;;;;;;;;5065489;28;20025;-70
2021/12/26 12:57:39;;;;;;;15.52;6.22;;;;;;;;;;5066083;28;20020;-72
2021/12/26 13:00:25;;;;;;;13.65;5.88;;;;;;;;;;5063618;28;20048;-70
2021/12/26 13:02:53;;;;;;;12.38;6.88;;;;;;;;;;5066808;28;20031;-70
2021/12/26 13:05:48;;;;;;;12.00;4.57;;;;;;;;;;5062947;28;20714;-70
2021/12/26 13:08:17;;;;;;;8.43;3.30;;;;;;;;;;5056621;28;20045;-71
2021/12/26 13:10:44;;;;;;;12.35;3.22;;;;;;;;;;5061194;28;20026;-70
2021/12/26 13:13:15;;;;;;;6.65;2.72;;;;;;;;;;5072651;28;20700;-70
2021/12/26 13:15:55;;;;;;;7.03;2.42;;;;;;;;;;5068811;28;20088;-71
2021/12/26 13:18:23;;;;;;;7.55;2.88;;;;;;;;;;5062774;28;20497;-70
2021/12/26 13:20:53;;;;;;;9.57;3.08;;;;;;;;;;5069998;28;20040;-76
2021/12/26 13:23:20;;;;;;;8.27;2.30;;;;;;;;;;5068973;28;20021;-70
2021/12/26 13:25:48;;;;;;;5.72;2.80;;;;;;;;;;5067190;28;20031;-68
2021/12/26 13:28:14;;;;;;;7.75;2.63;;;;;;;;;;5066435;28;20081;-73
2021/12/26 13:30:44;;;;;;;8.40;2.67;;;;;;;;;;5073734;28;20024;-69
2021/12/26 13:33:17;;;;;;;6.97;2.72;;;;;;;;;;5067233;28;20020;-69
2021/12/26 13:35:43;;;;;;;8.45;2.83;;;;;;;;;;5073834;28;20103;-69
2021/12/26 13:38:10;;;;;;;7.30;3.00;;;;;;;;;;5073128;28;20032;-71
2021/12/26 13:40:40;;;;;;;7.63;2.50;;;;;;;;;;5076341;28;20043;-70
2021/12/26 13:43:07;;;;;;;7.30;2.20;;;;;;;;;;5071102;28;20020;-69
2021/12/26 13:45:41;;;;;;;8.55;2.45;;;;;;;;;;5073082;28;20063;-70
2021/12/26 13:48:08;;;;;;;5.00;2.00;;;;;;;;;;5076094;28;20028;-74
2021/12/26 13:50:35;;;;;;;7.95;2.03;;;;;;;;;;5074215;28;20078;-69
2021/12/26 13:53:05;;;;;;;6.32;2.08;;;;;;;;;;5068921;28;20042;-70
2021/12/26 13:55:39;;;;;;;6.07;2.05;;;;;;;;;;5073310;28;20464;-70
2021/12/26 13:58:07;;;;;;;6.38;2.03;;;;;;;;;;5077393;28;20044;-70
2021/12/26 14:00:44;;;;;;;4.85;2.70;;;;;;;;;;5070869;28;20020;-70
2021/12/26 14:03:10;;;;;;;5.60;2.78;;;;;;;;;;5066149;28;20024;-70
2021/12/26 14:05:39;;;;;;;10.70;3.03;;;;;;;;;;5065376;28;20027;-69
2021/12/26 14:08:18;;;;;;;7.85;2.92;;;;;;;;;;5070722;28;20111;-69
2021/12/26 14:10:44;;;;;;;7.70;3.35;;;;;;;;;;5071685;28;20030;-69
2021/12/26 14:13:11;;;;;;;8.38;4.60;;;;;;;;;;5067057;28;20040;-69
2021/12/26 14:15:47;;;;;;;10.18;4.70;;;;;;;;;;5070714;28;20051;-73
2021/12/26 14:18:21;;;;;;;6.85;3.50;;;;;;;;;;5067848;28;20622;-69
2021/12/26 14:20:53;;;;;;;6.78;3.20;;;;;;;;;;5068079;28;20043;-70
2021/12/26 14:23:22;;;;;;;11.05;3.50;;;;;;;;;;5070626;28;20476;-70
2021/12/26 14:25:54;;;;;;;10.30;3.05;;;;;;;;;;5067946;28;20032;-70
2021/12/26 14:28:21;;;;;;;5.88;2.35;;;;;;;;;;5069746;28;20549;-72
2021/12/26 14:30:49;;;;;;;7.40;2.30;;;;;;;;;;5069060;28;20097;-70
2021/12/26 14:33:16;;;;;;;8.10;2.42;;;;;;;;;;5068993;28;20025;-70
2021/12/26 14:35:45;;;;;;;10.98;2.10;;;;;;;;;;5075093;28;20039;-71
2021/12/26 14:38:14;;;;;;;6.03;2.50;;;;;;;;;;5073998;28;20052;-69
2021/12/26 14:41:00;;;;;;;8.63;2.33;;;;;;;;;;5072682;28;20016;-69
2021/12/26 14:43:27;;;;;;;8.80;2.70;;;;;;;;;;5069184;28;20111;-70
2021/12/26 14:45:56;;;;;;;10.77;3.25;;;;;;;;;;5065769;28;20044;-76
2021/12/26 14:48:29;;;;;;;7.50;2.80;;;;;;;;;;5067719;28;20107;-70
2021/12/26 14:50:57;;;;;;;10.68;2.60;;;;;;;;;;5070455;28;20178;-70
2021/12/26 14:53:23;;;;;;;11.10;2.10;;;;;;;;;;5075332;28;20588;-77